Elbella — 9HA2358 — position and weather

sailwx.info

Track history (hours):
 
Tides and Currents Weather Stations Pressure Air Temp Water Temp Dewpoint Dewpoint Depression Visibility Wind Speed Wind Dir Waves Ship Positions

Elbella

Last reported at 2014-Jul-31 17:27 UTC. Time now 2014-Jul-31 23:45 UTC.
Position N 31°59' E 027°13'.

Length 176 m; draft 8.8 m.

Type: Ship (hazmat cat A). MMSI: 248422000.

Date/timePositionNaut miles runAvg speedWind from/ knotsBaromVisibWave heightAir tempDewpointWater temp
2014-Jul-31 17:27N 31°59' E 027°13'1112.2
2014-Jul-31 16:33N 31°56' E 027°25'1212.2
2014-Jul-31 15:33N 31°52' E 027°39'1212.2
2014-Jul-31 14:33N 31°49' E 027°53'1212.2
2014-Jul-31 13:33N 31°45' E 028°07'1212.3
2014-Jul-31 12:33N 31°41' E 028°20'6012.1
2014-Jul-31 07:33N 31°24' E 029°28'1411.9
2014-Jul-31 06:22N 31°17' E 029°43'9 0.9
2014-Jul-30 20:08N 31°09' E 029°48'0 0.0
2014-Jul-30 19:33N 31°09' E 029°48'0 0.0
2014-Jul-30 18:33N 31°09' E 029°48'0 0.0
2014-Jul-30 17:33N 31°09' E 029°48'0 0.0
2014-Jul-30 16:33N 31°09' E 029°48'0 0.0
2014-Jul-30 15:25N 31°09' E 029°48'0 0.0
2014-Jul-30 14:33N 31°09' E 029°48'0 0.0
2014-Jul-30 13:33N 31°09' E 029°48'0 0.0
2014-Jul-30 12:29N 31°09' E 029°48'0 0.0
2014-Jul-30 11:23N 31°09' E 029°48'71 7.9
2014-Jul-30 02:23N 31°45' E 030°59'1111.7
2014-Jul-30 01:27N 31°46' E 031°12'1111.7
2014-Jul-30 00:33N 31°46' E 031°25'1212.0
2014-Jul-29 23:33N 31°46' E 031°39'1212.0
2014-Jul-29 22:33N 31°47' E 031°53'1111.3
2014-Jul-29 21:33N 31°41' E 032°04'1212.0
2014-Jul-29 20:33N 31°32' E 032°14'1212.0
2014-Jul-29 19:32N 31°22' E 032°22'10 7.3
2014-Jul-29 18:12N 31°13' E 032°21'0 0.0
2014-Jul-29 17:30N 31°13' E 032°21'0 0.0
2014-Jul-29 16:15N 31°13' E 032°21'0 0.0
2014-Jul-29 15:33N 31°13' E 032°21'0 0.0
2014-Jul-29 14:33N 31°13' E 032°21'0 0.0
2014-Jul-29 13:33N 31°13' E 032°21'0 0.0
2014-Jul-29 12:33N 31°13' E 032°21'0 0.3
2014-Jul-29 11:31N 31°13' E 032°21'7 7.4
2014-Jul-29 10:33N 31°20' E 032°23'5 4.8
2014-Jul-29 09:32N 31°22' E 032°17'0 0.1
2014-Jul-29 08:29N 31°21' E 032°17'0 0.0
2014-Jul-29 07:32N 31°21' E 032°17'0 0.0
2014-Jul-29 02:32N 31°21' E 032°17'0 0.0
2014-Jul-29 01:32N 31°21' E 032°17'0 0.0
2014-Jul-29 00:08N 31°21' E 032°17'0 0.0
2014-Jul-28 23:32N 31°21' E 032°17'0 0.0
2014-Jul-28 22:34N 31°21' E 032°17'0 0.0
2014-Jul-28 21:33N 31°21' E 032°17'0 0.0
2014-Jul-28 20:33N 31°21' E 032°17'0 0.0
2014-Jul-28 19:33N 31°21' E 032°17'0 0.0
2014-Jul-28 18:33N 31°21' E 032°17'0 0.0
2014-Jul-28 17:33N 31°21' E 032°17'0 0.0
2014-Jul-28 16:33N 31°21' E 032°17'0 0.0
2014-Jul-28 15:33N 31°21' E 032°17'0 0.0
2014-Jul-28 14:33N 31°21' E 032°17'0 0.0
2014-Jul-28 13:33N 31°21' E 032°17'2 2.0
2014-Jul-28 12:28N 31°23' E 032°19'16311.4
2014-Jul-27 22:13N 33°27' E 034°24'1012.0
2014-Jul-27 21:25N 33°33' E 034°33'1112.2
2014-Jul-27 20:32N 33°39' E 034°44'1512.3
2014-Jul-27 19:18N 33°48' E 034°58'1012.2
2014-Jul-27 18:27N 33°54' E 035°09'93 3.1
2014-Jul-26 12:34N 34°32' E 033°27'1918.8
2014-Jul-26 11:34N 34°39' E 033°05'4 3.7
2014-Jul-26 10:33N 34°39' E 033°01'0 0.0
2014-Jul-26 09:33N 34°39' E 033°01'0 0.0
2014-Jul-26 08:33N 34°39' E 033°01'0 0.0
2014-Jul-26 07:33N 34°39' E 033°01'0 0.0
2014-Jul-26 06:33N 34°39' E 033°01'0 0.0
2014-Jul-26 05:33N 34°39' E 033°01'0 0.0
2014-Jul-26 04:34N 34°39' E 033°01'2 1.7
2014-Jul-26 03:33N 34°39' E 033°03'1 1.4
2014-Jul-26 02:31N 34°40' E 033°04'0 0.1
2014-Jul-26 01:33N 34°40' E 033°04'0 0.0
2014-Jul-26 00:33N 34°40' E 033°04'0 0.0
2014-Jul-25 23:33N 34°40' E 033°04'0 0.0
2014-Jul-25 22:33N 34°40' E 033°04'0 0.0
2014-Jul-25 21:33N 34°40' E 033°05'0 0.0
2014-Jul-25 20:33N 34°40' E 033°04'0 0.0
2014-Jul-25 19:33N 34°40' E 033°05'0 0.0
2014-Jul-25 18:33N 34°40' E 033°05'0 0.0
2014-Jul-25 17:33N 34°40' E 033°05'1 1.0
2014-Jul-25 16:33N 34°40' E 033°06'9 9.2
2014-Jul-25 15:33N 34°39' E 033°17'1110.9
2014-Jul-25 14:33N 34°38' E 033°30'1110.9
2014-Jul-25 13:33N 34°42' E 033°43'  
2014-Jul-22 20:17N 35°45' E 030°21'3418.5
2014-Jul-22 18:28N 35°45' E 029°39'18118.1
2014-Jul-22 08:30N 36°08' E 025°58'1818.9
2014-Jul-22 07:34N 36°05' E 025°36'1918.8
2014-Jul-22 06:34N 36°02' E 025°13'1918.4
2014-Jul-22 05:32N 35°59' E 024°50'1818.6
2014-Jul-22 04:33N 35°57' E 024°28'1918.6
2014-Jul-22 03:34N 35°54' E 024°05'2318.7
2014-Jul-22 02:20N 35°50' E 023°37'1418.7
2014-Jul-22 01:33N 35°43' E 023°22'  
Track history (hours):
 
Tides and Currents Weather Stations Pressure Air Temp Water Temp Dewpoint Dewpoint Depression Visibility Wind Speed Wind Dir Waves Ship Positions

Elbella

Last reported at 2014-Jul-31 17:27 UTC. Time now 2014-Jul-31 23:45 UTC.
Position N 31°59' E 027°13'.

Length 176 m; draft 8.8 m.

Type: Ship (hazmat cat A). MMSI: 248422000.

Date/timePositionNaut miles runAvg speedWind from/ knotsBaromVisibWave heightAir tempDewpointWater temp
2014-Jul-31 17:27N 31°59' E 027°13'1112.2
2014-Jul-31 16:33N 31°56' E 027°25'1212.2
2014-Jul-31 15:33N 31°52' E 027°39'1212.2
2014-Jul-31 14:33N 31°49' E 027°53'1212.2
2014-Jul-31 13:33N 31°45' E 028°07'1212.3
2014-Jul-31 12:33N 31°41' E 028°20'6012.1
2014-Jul-31 07:33N 31°24' E 029°28'1411.9
2014-Jul-31 06:22N 31°17' E 029°43'9 0.9
2014-Jul-30 20:08N 31°09' E 029°48'0 0.0
2014-Jul-30 19:33N 31°09' E 029°48'0 0.0
2014-Jul-30 18:33N 31°09' E 029°48'0 0.0
2014-Jul-30 17:33N 31°09' E 029°48'0 0.0
2014-Jul-30 16:33N 31°09' E 029°48'0 0.0
2014-Jul-30 15:25N 31°09' E 029°48'0 0.0
2014-Jul-30 14:33N 31°09' E 029°48'0 0.0
2014-Jul-30 13:33N 31°09' E 029°48'0 0.0
2014-Jul-30 12:29N 31°09' E 029°48'0 0.0
2014-Jul-30 11:23N 31°09' E 029°48'71 7.9
2014-Jul-30 02:23N 31°45' E 030°59'1111.7
2014-Jul-30 01:27N 31°46' E 031°12'1111.7
2014-Jul-30 00:33N 31°46' E 031°25'1212.0
2014-Jul-29 23:33N 31°46' E 031°39'1212.0
2014-Jul-29 22:33N 31°47' E 031°53'1111.3
2014-Jul-29 21:33N 31°41' E 032°04'1212.0
2014-Jul-29 20:33N 31°32' E 032°14'1212.0
2014-Jul-29 19:32N 31°22' E 032°22'10 7.3
2014-Jul-29 18:12N 31°13' E 032°21'0 0.0
2014-Jul-29 17:30N 31°13' E 032°21'0 0.0
2014-Jul-29 16:15N 31°13' E 032°21'0 0.0
2014-Jul-29 15:33N 31°13' E 032°21'0 0.0
2014-Jul-29 14:33N 31°13' E 032°21'0 0.0
2014-Jul-29 13:33N 31°13' E 032°21'0 0.0
2014-Jul-29 12:33N 31°13' E 032°21'0 0.3
2014-Jul-29 11:31N 31°13' E 032°21'7 7.4
2014-Jul-29 10:33N 31°20' E 032°23'5 4.8
2014-Jul-29 09:32N 31°22' E 032°17'0 0.1
2014-Jul-29 08:29N 31°21' E 032°17'0 0.0
2014-Jul-29 07:32N 31°21' E 032°17'0 0.0
2014-Jul-29 02:32N 31°21' E 032°17'0 0.0
2014-Jul-29 01:32N 31°21' E 032°17'0 0.0
2014-Jul-29 00:08N 31°21' E 032°17'0 0.0
2014-Jul-28 23:32N 31°21' E 032°17'0 0.0
2014-Jul-28 22:34N 31°21' E 032°17'0 0.0
2014-Jul-28 21:33N 31°21' E 032°17'0 0.0
2014-Jul-28 20:33N 31°21' E 032°17'0 0.0
2014-Jul-28 19:33N 31°21' E 032°17'0 0.0
2014-Jul-28 18:33N 31°21' E 032°17'0 0.0
2014-Jul-28 17:33N 31°21' E 032°17'0 0.0
2014-Jul-28 16:33N 31°21' E 032°17'0 0.0
2014-Jul-28 15:33N 31°21' E 032°17'0 0.0
2014-Jul-28 14:33N 31°21' E 032°17'0 0.0
2014-Jul-28 13:33N 31°21' E 032°17'2 2.0
2014-Jul-28 12:28N 31°23' E 032°19'16311.4
2014-Jul-27 22:13N 33°27' E 034°24'1012.0
2014-Jul-27 21:25N 33°33' E 034°33'1112.2
2014-Jul-27 20:32N 33°39' E 034°44'1512.3
2014-Jul-27 19:18N 33°48' E 034°58'1012.2
2014-Jul-27 18:27N 33°54' E 035°09'93 3.1
2014-Jul-26 12:34N 34°32' E 033°27'1918.8
2014-Jul-26 11:34N 34°39' E 033°05'4 3.7
2014-Jul-26 10:33N 34°39' E 033°01'0 0.0
2014-Jul-26 09:33N 34°39' E 033°01'0 0.0
2014-Jul-26 08:33N 34°39' E 033°01'0 0.0
2014-Jul-26 07:33N 34°39' E 033°01'0 0.0
2014-Jul-26 06:33N 34°39' E 033°01'0 0.0
2014-Jul-26 05:33N 34°39' E 033°01'0 0.0
2014-Jul-26 04:34N 34°39' E 033°01'2 1.7
2014-Jul-26 03:33N 34°39' E 033°03'1 1.4
2014-Jul-26 02:31N 34°40' E 033°04'0 0.1
2014-Jul-26 01:33N 34°40' E 033°04'0 0.0
2014-Jul-26 00:33N 34°40' E 033°04'0 0.0
2014-Jul-25 23:33N 34°40' E 033°04'0 0.0
2014-Jul-25 22:33N 34°40' E 033°04'0 0.0
2014-Jul-25 21:33N 34°40' E 033°05'0 0.0
2014-Jul-25 20:33N 34°40' E 033°04'0 0.0
2014-Jul-25 19:33N 34°40' E 033°05'0 0.0
2014-Jul-25 18:33N 34°40' E 033°05'0 0.0
2014-Jul-25 17:33N 34°40' E 033°05'1 1.0
2014-Jul-25 16:33N 34°40' E 033°06'9 9.2
2014-Jul-25 15:33N 34°39' E 033°17'1110.9
2014-Jul-25 14:33N 34°38' E 033°30'1110.9
2014-Jul-25 13:33N 34°42' E 033°43'  
2014-Jul-22 20:17N 35°45' E 030°21'3418.5
2014-Jul-22 18:28N 35°45' E 029°39'18118.1
2014-Jul-22 08:30N 36°08' E 025°58'1818.9
2014-Jul-22 07:34N 36°05' E 025°36'1918.8
2014-Jul-22 06:34N 36°02' E 025°13'1918.4
2014-Jul-22 05:32N 35°59' E 024°50'1818.6
2014-Jul-22 04:33N 35°57' E 024°28'1918.6
2014-Jul-22 03:34N 35°54' E 024°05'2318.7
2014-Jul-22 02:20N 35°50' E 023°37'1418.7
2014-Jul-22 01:33N 35°43' E 023°22'  

Dump ship's entire track history